createdAt,value
2023-02-19T00:00:48.488Z,75.67
2023-02-19T00:01:48.688Z,76.08
2023-02-19T00:02:48.860Z,75.78
2023-02-19T00:03:49.065Z,75.67
2023-02-19T00:04:49.229Z,74.96
2023-02-19T00:05:49.357Z,75.47
2023-02-19T00:06:49.548Z,75.27
2023-02-19T00:07:49.740Z,74.76
2023-02-19T00:08:49.884Z,75.06
2023-02-19T00:09:50.099Z,75.27
2023-02-19T00:10:50.266Z,75.16
2023-02-19T00:11:50.455Z,75.06
2023-02-19T00:12:50.580Z,74.65
2023-02-19T00:13:50.734Z,75.16
2023-02-19T00:14:50.916Z,75.47
2023-02-19T00:15:51.125Z,74.96
2023-02-19T00:16:51.273Z,74.86
2023-02-19T00:17:51.465Z,74.79
2023-02-19T00:18:51.609Z,74.69
2023-02-19T00:19:51.814Z,74.58
2023-02-19T00:20:51.970Z,74.99
2023-02-19T00:21:52.142Z,75.40
2023-02-19T00:22:52.341Z,75.51
2023-02-19T00:23:52.486Z,75.51
2023-02-19T00:24:52.674Z,74.58
2023-02-19T00:25:52.851Z,74.49
2023-02-19T00:26:53.027Z,74.28
2023-02-19T00:27:53.234Z,74.08
2023-02-19T00:28:53.393Z,74.38
2023-02-19T00:29:53.544Z,74.90
2023-02-19T00:30:53.717Z,74.90
2023-02-19T00:31:53.989Z,74.93
2023-02-19T00:32:54.104Z,74.90
2023-02-19T00:33:54.266Z,75.03
2023-02-19T00:34:54.405Z,74.52
2023-02-19T00:35:54.591Z,74.52
2023-02-19T00:36:54.767Z,74.83
2023-02-19T00:37:54.968Z,74.83
2023-02-19T00:38:55.135Z,75.54
2023-02-19T00:39:55.308Z,75.54
2023-02-19T00:40:55.478Z,75.44
2023-02-19T00:41:55.672Z,75.23
2023-02-19T00:42:55.844Z,75.34
2023-02-19T00:43:56.049Z,75.44
2023-02-19T00:44:56.190Z,75.54
2023-02-19T00:45:56.404Z,75.54
2023-02-19T00:46:56.541Z,75.60
2023-02-19T00:47:56.732Z,74.99
2023-02-19T00:48:56.884Z,74.62
2023-02-19T00:49:57.052Z,75.03
2023-02-19T00:50:57.242Z,75.34
2023-02-19T00:51:57.442Z,75.34
2023-02-19T00:52:57.642Z,75.54
2023-02-19T00:53:57.803Z,75.34
2023-02-19T00:54:57.943Z,74.90
2023-02-19T00:55:58.129Z,75.13
2023-02-19T00:56:58.308Z,75.23
2023-02-19T00:57:58.505Z,74.42
2023-02-19T00:58:58.648Z,74.73
2023-02-19T00:59:58.838Z,75.03
2023-02-19T01:00:59.006Z,75.23
2023-02-19T01:01:59.256Z,75.03
2023-02-19T01:02:59.366Z,74.32
2023-02-19T01:03:59.515Z,74.11
2023-02-19T01:04:59.755Z,74.83
2023-02-19T01:05:59.865Z,75.23
2023-02-19T01:07:00.050Z,75.44
2023-02-19T01:08:00.250Z,74.62
2023-02-19T01:09:00.395Z,74.11
2023-02-19T01:10:00.578Z,74.32
2023-02-19T01:11:00.760Z,74.83
2023-02-19T01:12:00.953Z,75.23
2023-02-19T01:13:01.118Z,74.21
2023-02-19T01:14:01.291Z,73.50
2023-02-19T01:15:01.474Z,73.50
2023-02-19T01:16:01.708Z,73.60
2023-02-19T01:17:01.812Z,73.30
2023-02-19T01:18:01.994Z,73.40
2023-02-19T01:19:02.194Z,73.30
2023-02-19T01:20:02.401Z,73.94
2023-02-19T01:21:02.558Z,73.33
2023-02-19T01:22:02.754Z,73.10
2023-02-19T01:23:02.916Z,73.43
2023-02-19T01:24:03.104Z,72.92
2023-02-19T01:25:03.285Z,72.92
2023-02-19T01:26:03.516Z,73.23
2023-02-19T01:27:03.655Z,73.43
2023-02-19T01:28:03.848Z,73.03
2023-02-19T01:29:04.041Z,73.43
2023-02-19T01:30:04.244Z,73.74
2023-02-19T01:31:04.423Z,74.15
2023-02-19T01:32:04.704Z,73.64
2023-02-19T01:33:04.717Z,73.33
2023-02-19T01:34:04.896Z,73.84
2023-02-19T01:35:05.065Z,74.55
2023-02-19T01:36:05.277Z,74.66
2023-02-19T01:37:05.418Z,73.94
2023-02-19T01:38:05.619Z,73.84
2023-02-19T01:39:05.809Z,73.54
2023-02-19T01:40:06.004Z,73.64
2023-02-19T01:41:06.180Z,73.64
2023-02-19T01:42:06.334Z,73.23
2023-02-19T01:43:06.507Z,73.33
2023-02-19T01:44:06.712Z,72.82
2023-02-19T01:45:06.852Z,72.52
2023-02-19T01:46:07.052Z,73.03
2023-02-19T01:47:07.192Z,72.92
2023-02-19T01:48:07.381Z,72.92
2023-02-19T01:49:07.563Z,73.13
2023-02-19T01:50:07.764Z,72.62
2023-02-19T01:51:08.433Z,73.64
2023-02-19T01:52:08.091Z,73.33
2023-02-19T01:53:08.281Z,72.72
2023-02-19T01:54:08.474Z,72.82
2023-02-19T01:55:08.656Z,73.23
2023-02-19T01:56:08.869Z,73.13
2023-02-19T01:57:09.003Z,74.08
2023-02-19T01:58:09.260Z,73.94
2023-02-19T01:59:09.357Z,74.15
2023-02-19T02:00:09.546Z,73.43
2023-02-19T02:01:10.248Z,74.15
2023-02-19T02:02:09.936Z,74.76
2023-02-19T02:03:10.056Z,74.76
2023-02-19T02:04:10.246Z,74.15
2023-02-19T02:05:10.433Z,73.54
2023-02-19T02:06:10.617Z,72.92
2023-02-19T02:07:10.761Z,73.43
2023-02-19T02:08:10.946Z,73.74
2023-02-19T02:09:11.137Z,73.94
2023-02-19T02:10:11.321Z,73.94
2023-02-19T02:11:11.781Z,73.84
2023-02-19T02:12:11.690Z,73.74
2023-02-19T02:13:11.868Z,72.82
2023-02-19T02:14:12.062Z,72.52
2023-02-19T02:15:12.239Z,73.23
2023-02-19T02:16:12.502Z,73.23
2023-02-19T02:17:12.592Z,73.43
2023-02-19T02:18:12.782Z,73.13
2023-02-19T02:19:12.972Z,72.52
2023-02-19T02:20:13.146Z,73.03
2023-02-19T02:21:13.333Z,73.03
2023-02-19T02:22:13.473Z,73.13
2023-02-19T02:23:13.663Z,72.92
2023-02-19T02:24:13.857Z,73.13
2023-02-19T02:25:14.036Z,73.03
2023-02-19T02:26:14.254Z,73.13
2023-02-19T02:27:14.399Z,73.43
2023-02-19T02:28:14.586Z,72.62
2023-02-19T02:29:14.792Z,72.92
2023-02-19T02:30:14.954Z,72.11
2023-02-19T02:31:15.421Z,71.91
2023-02-19T02:32:15.290Z,72.72
2023-02-19T02:33:15.457Z,72.31
2023-02-19T02:34:15.630Z,72.55
2023-02-19T02:35:15.828Z,72.82
2023-02-19T02:36:16.009Z,72.45
2023-02-19T02:37:16.150Z,72.00
2023-02-19T02:38:16.343Z,72.52
2023-02-19T02:39:16.524Z,72.96
2023-02-19T02:40:16.731Z,73.03
2023-02-19T02:41:16.870Z,73.47
2023-02-19T02:42:17.077Z,73.77
2023-02-19T02:43:17.250Z,73.57
2023-02-19T02:44:17.432Z,73.88
2023-02-19T02:45:17.611Z,73.43
2023-02-19T02:46:17.808Z,73.16
2023-02-19T02:47:17.966Z,73.27
2023-02-19T02:48:18.142Z,73.36
2023-02-19T02:49:18.328Z,73.33
2023-02-19T02:50:18.519Z,73.06
2023-02-19T02:51:18.703Z,73.13
2023-02-19T02:52:18.840Z,73.43
2023-02-19T02:53:19.020Z,73.36
2023-02-19T02:54:19.204Z,73.77
2023-02-19T02:55:19.378Z,73.64
2023-02-19T02:56:19.581Z,73.64
2023-02-19T02:57:19.721Z,73.74
2023-02-19T02:58:19.914Z,73.94
2023-02-19T02:59:20.090Z,73.84
2023-02-19T03:00:20.283Z,74.05
2023-02-19T03:01:20.494Z,74.18
2023-02-19T03:02:20.707Z,74.05
2023-02-19T03:03:20.800Z,73.74
2023-02-19T03:04:21.002Z,73.94
2023-02-19T03:05:21.179Z,73.94
2023-02-19T03:06:21.357Z,73.84
2023-02-19T03:07:21.521Z,73.94
2023-02-19T03:08:21.703Z,74.05
2023-02-19T03:09:21.882Z,74.05
2023-02-19T03:10:22.102Z,73.94
2023-02-19T03:11:22.225Z,73.84
2023-02-19T03:12:22.436Z,73.74
2023-02-19T03:13:22.635Z,73.84
2023-02-19T03:14:22.808Z,73.84
2023-02-19T03:15:22.940Z,73.64
2023-02-19T03:16:23.142Z,73.64
2023-02-19T03:17:23.317Z,73.64
2023-02-19T03:18:23.536Z,73.74
2023-02-19T03:19:23.684Z,73.54
2023-02-19T03:20:23.865Z,73.64
2023-02-19T03:21:24.038Z,73.74
2023-02-19T03:22:24.223Z,73.64
2023-02-19T03:23:24.458Z,73.74
2023-02-19T03:24:24.558Z,73.54
2023-02-19T03:25:24.754Z,73.54
2023-02-19T03:26:24.935Z,73.54
2023-02-19T03:27:25.105Z,73.33
2023-02-19T03:28:25.306Z,73.54
2023-02-19T03:29:25.484Z,73.33
2023-02-19T03:30:25.705Z,73.43
2023-02-19T03:32:41.912Z,73.23
2023-02-19T03:33:42.140Z,73.27
2023-02-19T03:34:42.278Z,73.23
2023-02-19T03:35:42.481Z,73.47
2023-02-19T03:36:42.640Z,73.36
2023-02-19T03:37:42.852Z,73.13
2023-02-19T03:38:43.064Z,73.16
2023-02-19T03:39:43.195Z,73.33
2023-02-19T03:40:43.339Z,73.43
2023-02-19T03:41:43.520Z,73.23
2023-02-19T03:42:43.699Z,73.13
2023-02-19T03:43:43.915Z,72.82
2023-02-19T03:44:44.057Z,72.82
2023-02-19T03:45:44.270Z,72.96
2023-02-19T03:46:44.485Z,72.82
2023-02-19T03:47:44.603Z,72.82
2023-02-19T03:48:44.794Z,72.82
2023-02-19T03:49:46.271Z,72.41
2023-02-19T03:50:45.133Z,72.82
2023-02-19T03:51:45.334Z,72.96
2023-02-19T03:52:45.499Z,72.82
2023-02-19T03:53:45.696Z,72.75
2023-02-19T03:54:45.838Z,72.86
2023-02-19T03:55:46.049Z,72.65
2023-02-19T03:56:46.215Z,72.34
2023-02-19T03:57:46.391Z,72.52
2023-02-19T03:58:46.599Z,72.45
2023-02-19T03:59:46.738Z,72.55
2023-02-19T04:00:46.918Z,72.45
2023-02-19T04:01:47.129Z,72.45
2023-02-19T04:02:47.294Z,72.45
2023-02-19T04:03:47.507Z,72.55
2023-02-19T04:04:47.674Z,72.55
2023-02-19T04:05:47.821Z,72.24
2023-02-19T04:06:48.002Z,72.34
2023-02-19T04:07:48.183Z,72.14
2023-02-19T04:08:48.362Z,72.14
2023-02-19T04:09:48.555Z,72.04
2023-02-19T04:10:48.727Z,72.24
2023-02-19T04:11:48.924Z,72.24
2023-02-19T04:12:49.093Z,72.04
2023-02-19T04:13:49.277Z,72.04
2023-02-19T04:14:49.513Z,72.04
2023-02-19T04:15:49.660Z,72.14
2023-02-19T04:16:49.923Z,71.94
2023-02-19T04:17:50.016Z,72.14
2023-02-19T04:18:50.196Z,72.04
2023-02-19T04:19:50.384Z,72.14
2023-02-19T04:20:50.595Z,72.04
2023-02-19T04:21:50.727Z,72.07
2023-02-19T04:22:50.898Z,72.04
2023-02-19T04:23:51.096Z,71.73
2023-02-19T04:24:51.276Z,71.36
2023-02-19T04:25:51.467Z,71.43
2023-02-19T04:26:51.642Z,71.56
2023-02-19T04:27:51.827Z,71.56
2023-02-19T04:28:52.024Z,71.56
2023-02-19T04:29:52.167Z,71.56
2023-02-19T04:30:52.377Z,71.36
2023-02-19T04:31:52.579Z,71.56
2023-02-19T04:32:52.699Z,71.46
2023-02-19T04:33:52.908Z,71.36
2023-02-19T04:34:54.385Z,71.05
2023-02-19T04:35:53.250Z,71.46
2023-02-19T04:36:53.414Z,71.56
2023-02-19T04:37:53.612Z,71.15
2023-02-19T04:38:53.795Z,71.46
2023-02-19T04:39:53.981Z,71.46
2023-02-19T04:40:54.158Z,71.36
2023-02-19T04:41:54.349Z,71.26
2023-02-19T04:42:54.534Z,71.39
2023-02-19T04:43:54.733Z,71.50
2023-02-19T04:44:54.873Z,71.50
2023-02-19T04:45:55.077Z,71.09
2023-02-19T04:46:55.261Z,71.39
2023-02-19T04:47:55.438Z,71.19
2023-02-19T04:48:55.629Z,71.39
2023-02-19T04:49:55.810Z,71.39
2023-02-19T04:50:55.982Z,71.50
2023-02-19T04:51:56.172Z,71.50
2023-02-19T04:52:56.360Z,71.50
2023-02-19T04:53:56.507Z,71.39
2023-02-19T04:54:56.685Z,71.19
2023-02-19T04:55:56.888Z,71.29
2023-02-19T04:56:57.019Z,71.50
2023-02-19T04:57:57.206Z,71.19
2023-02-19T04:58:57.383Z,71.29
2023-02-19T04:59:57.578Z,71.19
2023-02-19T05:00:57.765Z,71.50
2023-02-19T05:01:57.907Z,71.39
2023-02-19T05:02:58.099Z,71.50
2023-02-19T05:03:58.275Z,71.09
2023-02-19T05:04:58.478Z,71.19
2023-02-19T05:05:58.657Z,71.42
2023-02-19T05:06:58.829Z,71.29
2023-02-19T05:07:59.029Z,71.29
2023-02-19T05:08:59.212Z,71.42
2023-02-19T05:09:59.389Z,71.42
2023-02-19T05:10:59.560Z,71.42
2023-02-19T05:11:59.740Z,71.22
2023-02-19T05:12:59.959Z,71.33
2023-02-19T05:14:00.127Z,71.33
2023-02-19T05:15:00.287Z,71.42
2023-02-19T05:16:00.528Z,71.42
2023-02-19T05:17:00.660Z,71.33
2023-02-19T05:18:00.863Z,71.33
2023-02-19T05:19:01.054Z,71.12
2023-02-19T05:20:01.187Z,71.22
2023-02-19T05:21:01.381Z,71.12
2023-02-19T05:22:01.552Z,71.12
2023-02-19T05:23:01.753Z,71.01
2023-02-19T05:24:01.892Z,71.01
2023-02-19T05:25:02.084Z,71.22
2023-02-19T05:26:02.287Z,71.12
2023-02-19T05:27:02.455Z,71.12
2023-02-19T05:28:02.645Z,71.25
2023-02-19T05:29:02.812Z,71.12
2023-02-19T05:30:03.040Z,71.33
2023-02-19T05:31:03.232Z,71.01
2023-02-19T05:32:03.359Z,71.22
2023-02-19T05:33:03.524Z,71.36
2023-02-19T05:34:03.713Z,71.46
2023-02-19T05:35:03.891Z,71.15
2023-02-19T05:36:04.071Z,71.05
2023-02-19T05:37:04.261Z,71.15
2023-02-19T05:38:04.457Z,71.25
2023-02-19T05:39:04.625Z,71.46
2023-02-19T05:40:04.806Z,71.36
2023-02-19T05:41:05.001Z,71.36
2023-02-19T05:42:05.180Z,71.15
2023-02-19T05:43:05.355Z,71.05
2023-02-19T05:44:05.493Z,71.05
2023-02-19T05:45:05.680Z,71.25
2023-02-19T05:46:05.902Z,71.15
2023-02-19T05:47:06.073Z,71.25
2023-02-19T05:48:06.206Z,71.36
2023-02-19T05:49:06.396Z,71.36
2023-02-19T05:50:06.576Z,71.15
2023-02-19T05:51:06.797Z,71.36
2023-02-19T05:52:06.945Z,71.36
2023-02-19T05:53:07.143Z,71.25
2023-02-19T05:54:07.313Z,71.25
2023-02-19T05:55:07.488Z,71.36
2023-02-19T05:56:07.678Z,71.15
2023-02-19T05:57:07.848Z,71.25
2023-02-19T05:58:08.000Z,71.36
2023-02-19T05:59:08.180Z,71.36
2023-02-19T06:00:08.395Z,71.25
2023-02-19T06:01:08.780Z,71.05
2023-02-19T06:02:08.712Z,70.84
2023-02-19T06:03:08.900Z,71.15
2023-02-19T06:04:09.098Z,70.95
2023-02-19T06:05:09.282Z,71.25
2023-02-19T06:06:09.433Z,71.36
2023-02-19T06:07:09.617Z,71.39
2023-02-19T06:08:09.783Z,71.25
2023-02-19T06:09:09.990Z,71.39
2023-02-19T06:10:10.122Z,71.25
2023-02-19T06:11:10.604Z,71.29
2023-02-19T06:12:10.481Z,71.29
2023-02-19T06:13:10.673Z,71.19
2023-02-19T06:14:10.853Z,71.29
2023-02-19T06:15:11.034Z,71.19
2023-02-19T06:16:11.251Z,71.19
2023-02-19T06:17:11.395Z,71.19
2023-02-19T06:18:11.573Z,71.08
2023-02-19T06:19:11.821Z,71.29
2023-02-19T06:20:11.947Z,70.84
2023-02-19T06:21:12.516Z,70.78
2023-02-19T06:22:12.304Z,70.78
2023-02-19T06:23:12.470Z,70.88
2023-02-19T06:24:12.659Z,70.78
2023-02-19T06:25:12.850Z,71.08
2023-02-19T06:26:12.985Z,70.57
2023-02-19T06:27:13.186Z,71.08
2023-02-19T06:28:13.356Z,70.98
2023-02-19T06:29:13.550Z,71.08
2023-02-19T06:30:13.737Z,71.08
2023-02-19T06:31:14.344Z,70.88
2023-02-19T06:32:14.102Z,70.37
2023-02-19T06:33:14.232Z,70.37
2023-02-19T06:34:14.412Z,70.26
2023-02-19T06:35:14.561Z,70.57
2023-02-19T06:36:14.725Z,70.67
2023-02-19T06:37:14.891Z,70.88
2023-02-19T06:38:15.052Z,70.67
2023-02-19T06:39:15.229Z,70.47
2023-02-19T06:40:15.392Z,70.98
2023-02-19T06:41:15.566Z,70.26
2023-02-19T06:42:15.747Z,69.65
2023-02-19T06:43:15.907Z,69.55
2023-02-19T06:44:16.111Z,69.55
2023-02-19T06:45:16.240Z,70.09
2023-02-19T06:46:16.454Z,70.29
2023-02-19T06:47:16.572Z,70.71
2023-02-19T06:48:16.749Z,70.81
2023-02-19T06:49:16.937Z,70.61
2023-02-19T06:50:17.096Z,69.99
2023-02-19T06:51:17.287Z,70.61
2023-02-19T06:52:17.452Z,70.91
2023-02-19T06:53:17.614Z,70.91
2023-02-19T06:54:17.808Z,70.50
2023-02-19T06:55:17.989Z,70.71
2023-02-19T06:56:18.163Z,70.91
2023-02-19T06:57:18.317Z,70.81
2023-02-19T06:58:18.477Z,70.50
2023-02-19T06:59:18.651Z,70.71
2023-02-19T07:00:18.801Z,70.20
2023-02-19T07:01:19.103Z,70.20
2023-02-19T07:02:19.125Z,70.61
2023-02-19T07:03:19.319Z,70.29
2023-02-19T07:04:19.558Z,70.61
2023-02-19T07:05:19.649Z,70.40
2023-02-19T07:06:19.808Z,70.40
2023-02-19T07:07:19.985Z,70.20
2023-02-19T07:08:20.136Z,70.29
2023-02-19T07:09:20.340Z,70.29
2023-02-19T07:10:20.498Z,70.71
2023-02-19T07:11:20.668Z,71.12
2023-02-19T07:12:20.829Z,70.81
2023-02-19T07:13:20.997Z,70.50
2023-02-19T07:14:21.207Z,70.40
2023-02-19T07:15:21.368Z,70.61
2023-02-19T07:16:21.540Z,71.01
2023-02-19T07:17:21.679Z,71.12
2023-02-19T07:18:21.863Z,70.81
2023-02-19T07:19:22.099Z,70.71
2023-02-19T07:20:22.237Z,70.50
2023-02-19T07:21:22.417Z,70.20
2023-02-19T07:22:22.587Z,69.68
2023-02-19T07:23:22.776Z,69.68
2023-02-19T07:24:22.988Z,70.09
2023-02-19T07:25:23.148Z,70.61
2023-02-19T07:26:23.336Z,70.40
2023-02-19T07:27:23.521Z,69.79
2023-02-19T07:28:23.699Z,69.68
2023-02-19T07:29:23.917Z,69.58
2023-02-19T07:30:24.085Z,69.38
2023-02-19T07:31:24.528Z,69.48
2023-02-19T07:32:24.429Z,69.48
2023-02-19T07:33:24.593Z,69.58
2023-02-19T07:34:24.749Z,69.07
2023-02-19T07:35:24.913Z,69.48
2023-02-19T07:36:25.091Z,69.58
2023-02-19T07:37:25.225Z,69.68
2023-02-19T07:38:25.381Z,69.79
2023-02-19T07:39:25.542Z,69.48
2023-02-19T07:40:25.705Z,69.58
2023-02-19T07:41:25.957Z,69.48
2023-02-19T07:42:26.023Z,69.27
2023-02-19T07:43:26.184Z,69.38
2023-02-19T07:44:26.342Z,69.27
2023-02-19T07:45:26.578Z,69.27
2023-02-19T07:46:26.720Z,69.27
2023-02-19T07:47:26.878Z,68.97
2023-02-19T07:48:27.038Z,68.76
2023-02-19T07:49:27.197Z,69.07
2023-02-19T07:50:27.358Z,68.87
2023-02-19T07:51:27.590Z,68.76
2023-02-19T07:52:27.708Z,68.76
2023-02-19T07:53:27.934Z,69.27
2023-02-19T07:54:28.084Z,69.17
2023-02-19T07:55:28.228Z,68.97
2023-02-19T07:56:28.400Z,69.17
2023-02-19T07:57:28.567Z,69.34
2023-02-19T07:58:29.716Z,68.73
2023-02-19T07:59:28.905Z,68.63
2023-02-19T08:00:29.059Z,68.84
2023-02-19T08:01:29.364Z,68.73
2023-02-19T08:02:29.420Z,68.73
2023-02-19T08:03:29.656Z,68.73
2023-02-19T08:04:29.742Z,68.73
2023-02-19T08:05:29.906Z,68.22
2023-02-19T08:06:30.104Z,68.22
2023-02-19T08:07:30.242Z,68.52
2023-02-19T08:08:30.398Z,68.63
2023-02-19T08:09:30.604Z,68.49
2023-02-19T08:10:30.771Z,69.11
2023-02-19T08:11:31.023Z,68.60
2023-02-19T08:12:31.159Z,68.60
2023-02-19T08:13:31.335Z,70.34
2023-02-19T08:14:31.499Z,74.32
2023-02-19T08:15:31.674Z,74.08
2023-02-19T08:16:42.694Z,73.06
2023-02-19T08:17:33.004Z,72.92
2023-02-19T08:18:32.164Z,72.21
2023-02-19T08:19:32.329Z,72.21
2023-02-19T08:20:32.481Z,72.41
2023-02-19T08:21:34.375Z,71.39
2023-02-19T08:22:32.830Z,71.05
2023-02-19T08:23:33.014Z,70.85
2023-02-19T08:24:33.206Z,70.14
2023-02-19T08:25:33.416Z,71.56
2023-02-19T08:26:33.553Z,73.06
2023-02-19T08:27:33.715Z,72.34
2023-02-19T08:28:33.856Z,71.33
2023-02-19T08:29:34.080Z,70.57
2023-02-19T08:30:34.284Z,70.89
2023-02-19T08:31:34.572Z,70.48
2023-02-19T08:32:34.575Z,70.27
2023-02-19T08:33:34.782Z,69.53
2023-02-19T08:34:34.905Z,68.71
2023-02-19T08:35:35.085Z,68.51
2023-02-19T08:36:35.299Z,68.07
2023-02-19T08:37:35.437Z,67.46
2023-02-19T08:38:35.621Z,66.94
2023-02-19T08:39:35.844Z,67.22
2023-02-19T08:40:36.000Z,67.73
2023-02-19T08:41:36.157Z,66.82
2023-02-19T08:42:36.327Z,65.89
2023-02-19T08:43:36.481Z,65.77
2023-02-19T08:44:36.665Z,65.25
2023-02-19T08:45:36.845Z,65.05
2023-02-19T08:46:37.030Z,65.77
2023-02-19T08:47:37.173Z,65.63
2023-02-19T08:48:37.360Z,65.94
2023-02-19T08:49:37.506Z,64.51
2023-02-19T08:50:37.694Z,64.11
2023-02-19T08:51:37.846Z,64.81
2023-02-19T08:52:38.021Z,64.99
2023-02-19T08:53:38.207Z,64.18
2023-02-19T08:54:38.395Z,64.18
2023-02-19T08:55:38.576Z,64.89
2023-02-19T08:56:38.708Z,63.87
2023-02-19T08:57:38.879Z,63.23
2023-02-19T08:58:39.045Z,63.23
2023-02-19T08:59:39.202Z,63.33
2023-02-19T09:00:39.358Z,64.04
2023-02-19T09:01:39.600Z,64.93
2023-02-19T09:02:39.718Z,62.90
2023-02-19T09:03:39.911Z,62.08
2023-02-19T09:04:40.070Z,62.70
2023-02-19T09:05:40.237Z,61.75
2023-02-19T09:06:40.452Z,60.63
2023-02-19T09:07:40.580Z,61.75
2023-02-19T09:08:40.740Z,61.34
2023-02-19T09:09:40.912Z,61.95
2023-02-19T09:10:41.064Z,62.43
2023-02-19T09:11:41.258Z,61.93
2023-02-19T09:12:41.398Z,61.90
2023-02-19T09:13:41.578Z,62.60
2023-02-19T09:14:41.728Z,61.90
2023-02-19T09:15:41.952Z,62.30
2023-02-19T09:16:42.122Z,61.29
2023-02-19T09:17:42.275Z,61.59
2023-02-19T09:18:42.456Z,62.37
2023-02-19T09:19:42.613Z,61.66
2023-02-19T09:20:42.768Z,62.48
2023-02-19T09:21:42.989Z,60.35
2023-02-19T09:22:43.123Z,62.24
2023-02-19T09:23:43.315Z,60.52
2023-02-19T09:24:43.478Z,62.95
2023-02-19T09:25:43.639Z,64.14
2023-02-19T09:26:43.887Z,63.63
2023-02-19T09:27:43.989Z,63.70
2023-02-19T09:28:44.163Z,62.18
2023-02-19T09:29:44.316Z,60.46
2023-02-19T09:30:44.526Z,60.94
2023-02-19T09:31:44.772Z,61.24
2023-02-19T09:34:00.399Z,59.63
2023-02-19T09:35:00.600Z,59.32
2023-02-19T09:36:00.758Z,59.01
2023-02-19T09:37:00.928Z,57.57
2023-02-19T09:38:01.112Z,59.39
2023-02-19T09:39:01.293Z,57.47
2023-02-19T09:40:01.472Z,57.07
2023-02-19T09:41:01.684Z,57.87
2023-02-19T09:42:02.015Z,57.54
2023-02-19T09:43:02.022Z,55.93
2023-02-19T09:44:02.205Z,56.91
2023-02-19T09:45:02.353Z,55.49
2023-02-19T09:46:02.551Z,56.81
2023-02-19T09:47:02.678Z,57.72
2023-02-19T09:48:02.865Z,57.31
2023-02-19T09:49:03.909Z,57.69
2023-02-19T09:50:03.185Z,58.09
2023-02-19T09:51:03.338Z,57.18
2023-02-19T09:52:03.613Z,56.98
2023-02-19T09:53:03.741Z,55.44
2023-02-19T09:54:03.904Z,55.65
2023-02-19T09:55:04.069Z,56.63
2023-02-19T09:56:04.247Z,56.32
2023-02-19T09:57:04.461Z,55.21
2023-02-19T09:58:04.629Z,55.79
2023-02-19T09:59:04.750Z,55.99
2023-02-19T10:00:04.919Z,55.29
2023-02-19T10:01:05.092Z,54.18
2023-02-19T10:02:05.283Z,55.77
2023-02-19T10:03:05.431Z,58.09
2023-02-19T10:04:05.620Z,58.26
2023-02-19T10:05:05.801Z,58.23
2023-02-19T10:06:05.942Z,57.83
2023-02-19T10:07:06.153Z,57.40
2023-02-19T10:08:06.324Z,56.80
2023-02-19T10:09:06.535Z,55.96
2023-02-19T10:10:06.701Z,55.36
2023-02-19T10:11:06.871Z,56.34
2023-02-19T10:12:08.322Z,54.63
2023-02-19T10:13:07.206Z,53.02
2023-02-19T10:14:07.390Z,53.00
2023-02-19T10:15:07.566Z,54.30
2023-02-19T10:16:07.757Z,54.00
2023-02-19T10:17:08.178Z,51.99
2023-02-19T10:18:11.036Z,52.29
2023-02-19T10:19:08.272Z,53.80
2023-02-19T10:20:08.434Z,54.00
2023-02-19T10:21:08.879Z,54.20
2023-02-19T10:22:08.765Z,53.30
2023-02-19T10:23:08.954Z,52.62
2023-02-19T10:24:09.127Z,51.41
2023-02-19T10:25:09.316Z,51.41
2023-02-19T10:26:09.492Z,52.69
2023-02-19T10:27:09.639Z,50.91
2023-02-19T10:28:09.799Z,54.53
2023-02-19T10:29:09.981Z,53.20
2023-02-19T10:30:10.188Z,51.29
2023-02-19T10:31:10.775Z,52.89
2023-02-19T10:32:10.567Z,52.69
2023-02-19T10:33:10.687Z,53.00
2023-02-19T10:34:10.871Z,50.76
2023-02-19T10:35:11.030Z,49.25
2023-02-19T10:36:11.231Z,51.56
2023-02-19T10:37:12.380Z,50.53
2023-02-19T10:38:11.586Z,50.63
2023-02-19T10:39:11.744Z,50.33
2023-02-19T10:40:11.910Z,51.44
2023-02-19T10:41:12.355Z,50.03
2023-02-19T10:42:12.247Z,51.24
2023-02-19T10:43:12.407Z,50.03
2023-02-19T10:44:12.607Z,55.66
2023-02-19T10:45:12.725Z,56.56
2023-02-19T10:46:12.905Z,61.55
2023-02-19T10:47:13.099Z,61.02
2023-02-19T10:48:13.279Z,60.39
2023-02-19T10:49:13.436Z,57.08
2023-02-19T10:50:13.624Z,57.15
2023-02-19T10:51:13.930Z,56.76
2023-02-19T10:52:13.966Z,57.33
2023-02-19T10:53:14.160Z,58.63
2023-02-19T10:54:14.344Z,58.11
2023-02-19T10:55:14.514Z,58.11
2023-02-19T10:56:14.681Z,58.37
2023-02-19T10:57:14.844Z,57.98
2023-02-19T10:58:15.046Z,55.85
2023-02-19T10:59:15.190Z,54.42
2023-02-19T11:00:15.410Z,54.60
2023-02-19T11:01:15.512Z,54.37
2023-02-19T11:02:15.683Z,52.47
2023-02-19T11:03:15.840Z,50.04
2023-02-19T11:04:16.088Z,48.32
2023-02-19T11:05:16.205Z,49.12
2023-02-19T11:06:16.362Z,47.30
2023-02-19T11:07:16.556Z,49.80
2023-02-19T11:08:16.722Z,47.90
2023-02-19T11:09:16.923Z,47.48
2023-02-19T11:10:17.101Z,47.86
2023-02-19T11:11:17.223Z,48.95
2023-02-19T11:12:17.393Z,47.86
2023-02-19T11:13:17.540Z,50.05
2023-02-19T11:14:17.718Z,49.53
2023-02-19T11:15:17.886Z,50.32
2023-02-19T11:16:18.131Z,48.73
2023-02-19T11:17:18.252Z,49.73
2023-02-19T11:18:18.441Z,48.83
2023-02-19T11:19:18.584Z,45.26
2023-02-19T11:20:18.777Z,44.46
2023-02-19T11:21:18.949Z,46.36
2023-02-19T11:22:19.121Z,48.85
2023-02-19T11:23:19.306Z,48.85
2023-02-19T11:24:19.469Z,49.55
2023-02-19T11:25:19.627Z,49.45
2023-02-19T11:26:19.814Z,48.16
2023-02-19T11:27:19.977Z,48.35
2023-02-19T11:28:20.128Z,49.35
2023-02-19T11:29:20.305Z,49.75
2023-02-19T11:30:20.514Z,46.66
2023-02-19T11:31:20.805Z,49.45
2023-02-19T11:32:21.110Z,49.15
2023-02-19T11:33:21.011Z,49.87
2023-02-19T11:34:21.217Z,46.08
2023-02-19T11:35:21.353Z,49.27
2023-02-19T11:36:21.540Z,46.26
2023-02-19T11:37:21.704Z,48.97
2023-02-19T11:38:21.905Z,49.27
2023-02-19T11:39:22.070Z,48.46
2023-02-19T11:40:22.258Z,47.53
2023-02-19T11:41:22.457Z,48.03
2023-02-19T11:42:22.566Z,48.33
2023-02-19T11:43:22.742Z,47.33
2023-02-19T11:44:22.925Z,44.42
2023-02-19T11:45:23.083Z,47.21
2023-02-19T11:46:23.268Z,46.59
2023-02-19T11:47:23.425Z,47.56
2023-02-19T11:48:23.654Z,45.28
2023-02-19T11:49:23.799Z,46.75
2023-02-19T11:50:23.953Z,46.45
2023-02-19T11:51:24.108Z,46.55
2023-02-19T11:52:24.287Z,44.74
2023-02-19T11:53:24.436Z,44.54
2023-02-19T11:54:24.605Z,43.74
2023-02-19T11:55:24.786Z,45.36
2023-02-19T11:56:24.953Z,45.06
2023-02-19T11:57:25.123Z,45.95
2023-02-19T11:58:25.311Z,45.28
2023-02-19T11:59:25.464Z,44.88
2023-02-19T12:00:25.660Z,43.90
2023-02-19T12:01:25.826Z,42.61
2023-02-19T12:02:25.996Z,47.49
2023-02-19T12:03:26.170Z,46.61
2023-02-19T12:04:26.348Z,46.72
2023-02-19T12:05:26.527Z,43.73
2023-02-19T12:06:26.683Z,43.85
2023-02-19T12:07:26.846Z,47.33
2023-02-19T12:08:27.004Z,45.36
2023-02-19T12:09:27.213Z,44.27
2023-02-19T12:10:27.348Z,45.76
2023-02-19T12:11:27.503Z,47.14
2023-02-19T12:12:27.699Z,47.03
2023-02-19T12:13:27.870Z,47.44
2023-02-19T12:14:28.049Z,47.93
2023-02-19T12:15:28.225Z,46.22
2023-02-19T12:16:28.488Z,45.20
2023-02-19T12:17:28.556Z,46.17
2023-02-19T12:18:28.745Z,44.76
2023-02-19T12:19:28.902Z,43.96
2023-02-19T12:20:31.711Z,43.74
2023-02-19T12:21:29.245Z,43.23
2023-02-19T12:22:29.445Z,43.40
2023-02-19T12:23:29.640Z,41.79
2023-02-19T12:24:29.749Z,41.77
2023-02-19T12:25:29.938Z,42.27
2023-02-19T12:26:30.104Z,41.77
2023-02-19T12:27:30.270Z,40.28
2023-02-19T12:28:30.471Z,40.66
2023-02-19T12:29:30.611Z,40.34
2023-02-19T12:30:30.787Z,41.22
2023-02-19T12:31:33.068Z,41.49
2023-02-19T12:32:31.115Z,40.31
2023-02-19T12:33:31.280Z,40.82
2023-02-19T12:34:31.451Z,39.73
2023-02-19T12:35:31.633Z,40.60
2023-02-19T12:36:31.816Z,40.80
2023-02-19T12:37:31.997Z,40.31
2023-02-19T12:38:32.172Z,38.32
2023-02-19T12:39:32.348Z,37.62
2023-02-19T12:40:32.521Z,39.58
2023-02-19T12:41:32.661Z,38.98
2023-02-19T12:42:32.813Z,36.21
2023-02-19T12:43:33.013Z,38.49
2023-02-19T12:44:33.161Z,38.37
2023-02-19T12:45:33.442Z,38.57
2023-02-19T12:46:33.560Z,39.64
2023-02-19T12:47:33.755Z,39.72
2023-02-19T12:48:33.891Z,39.42
2023-02-19T12:49:34.098Z,39.50
2023-02-19T12:50:34.253Z,39.28
2023-02-19T12:51:34.423Z,38.77
2023-02-19T12:52:34.571Z,37.29
2023-02-19T12:53:34.760Z,37.29
2023-02-19T12:54:34.942Z,38.35
2023-02-19T12:55:35.088Z,38.64
2023-02-19T12:56:35.240Z,38.54
2023-02-19T12:57:35.429Z,38.32